sensor_id;sensor_type;location;lat;lon;timestamp;P1;P2;P0
53698;PMS7003;68408;53.952;27.612;2023-06-04T00:01:42;3.8;2.4;1.8
53698;PMS7003;68408;53.952;27.612;2023-06-04T00:06:46;3.6;2.6;2.1
53698;PMS7003;68408;53.952;27.612;2023-06-04T00:12:16;3.6;2.5;2.1
53698;PMS7003;68408;53.952;27.612;2023-06-04T00:17:16;3.2;2.1;1.7
53698;PMS7003;68408;53.952;27.612;2023-06-04T00:21:32;2.9;2.2;1.9
53698;PMS7003;68408;53.952;27.612;2023-06-04T00:27:16;3.5;2.5;2.2
53698;PMS7003;68408;53.952;27.612;2023-06-04T00:32:00;3.6;2.7;2.2
53698;PMS7003;68408;53.952;27.612;2023-06-04T00:37:02;3.6;2.1;1.9
53698;PMS7003;68408;53.952;27.612;2023-06-04T00:42:02;3.4;2.4;1.9
53698;PMS7003;68408;53.952;27.612;2023-06-04T00:47:16;3.5;2.5;2.3
53698;PMS7003;68408;53.952;27.612;2023-06-04T00:51:34;3;2.3;1.9
53698;PMS7003;68408;53.952;27.612;2023-06-04T00:57:16;3.2;2.2;2.1
53698;PMS7003;68408;53.952;27.612;2023-06-04T01:01:34;3;2.4;2.2
53698;PMS7003;68408;53.952;27.612;2023-06-04T01:07:00;3.7;2.5;2
53698;PMS7003;68408;53.952;27.612;2023-06-04T01:11:58;4.5;3.6;3
53698;PMS7003;68408;53.952;27.612;2023-06-04T01:17:17;4.8;3.4;2.9
53698;PMS7003;68408;53.952;27.612;2023-06-04T01:21:32;3.5;2.6;2.2
53698;PMS7003;68408;53.952;27.612;2023-06-04T01:26:38;3.6;3.1;2.5
53698;PMS7003;68408;53.952;27.612;2023-06-04T01:31:44;3.6;2.5;2
53698;PMS7003;68408;53.952;27.612;2023-06-04T01:37:16;2.4;2;1.7
53698;PMS7003;68408;53.952;27.612;2023-06-04T01:41:32;3.1;2.4;2.1
53698;PMS7003;68408;53.952;27.612;2023-06-04T01:47:16;3.5;2.4;2.1
53698;PMS7003;68408;53.952;27.612;2023-06-04T01:52:02;2.6;2.2;1.8
53698;PMS7003;68408;53.952;27.612;2023-06-04T01:57:18;3.6;2.4;2.1
53698;PMS7003;68408;53.952;27.612;2023-06-04T02:01:32;4.1;2.5;2
53698;PMS7003;68408;53.952;27.612;2023-06-04T02:07:18;3;2.4;2.2
53698;PMS7003;68408;53.952;27.612;2023-06-04T02:12:02;3.4;2.7;2.3
53698;PMS7003;68408;53.952;27.612;2023-06-04T02:17:18;3.6;3.1;2.6
53698;PMS7003;68408;53.952;27.612;2023-06-04T02:21:36;4;3;2.6
53698;PMS7003;68408;53.952;27.612;2023-06-04T02:27:18;3.6;3.1;2.6
53698;PMS7003;68408;53.952;27.612;2023-06-04T02:32:02;3.8;2.9;2.6
53698;PMS7003;68408;53.952;27.612;2023-06-04T02:37:18;3.6;3.1;2.8
53698;PMS7003;68408;53.952;27.612;2023-06-04T02:41:36;3.2;2.7;2.4
53698;PMS7003;68408;53.952;27.612;2023-06-04T02:47:18;4;3;2.6
53698;PMS7003;68408;53.952;27.612;2023-06-04T02:51:38;3.1;2.6;2.3
53698;PMS7003;68408;53.952;27.612;2023-06-04T02:57:18;3.2;2.3;1.9
53698;PMS7003;68408;53.952;27.612;2023-06-04T03:01:44;2.8;2.6;2.1
53698;PMS7003;68408;53.952;27.612;2023-06-04T03:07:18;2.1;1.9;1.7
53698;PMS7003;68408;53.952;27.612;2023-06-04T03:12:00;2.6;1.5;1.3
53698;PMS7003;68408;53.952;27.612;2023-06-04T03:17:18;1.9;1.5;1.2
53698;PMS7003;68408;53.952;27.612;2023-06-04T03:21:32;1.8;1.6;1.2
53698;PMS7003;68408;53.952;27.612;2023-06-04T03:27:18;1.4;1;0.9
53698;PMS7003;68408;53.952;27.612;2023-06-04T03:32:00;2;1.1;0.8
53698;PMS7003;68408;53.952;27.612;2023-06-04T03:37:18;1.1;0.7;0.6
53698;PMS7003;68408;53.952;27.612;2023-06-04T03:41:44;1.1;0.9;0.8
53698;PMS7003;68408;53.952;27.612;2023-06-04T03:47:18;1.5;1;0.8
53698;PMS7003;68408;53.952;27.612;2023-06-04T03:52:02;1.5;1;0.9
53698;PMS7003;68408;53.952;27.612;2023-06-04T03:57:18;1.1;0.8;0.7
53698;PMS7003;68408;53.952;27.612;2023-06-04T04:01:48;1;0.9;0.8
53698;PMS7003;68408;53.952;27.612;2023-06-04T04:07:18;1.3;1;0.8
53698;PMS7003;68408;53.952;27.612;2023-06-04T04:12:02;1.9;1.1;1
53698;PMS7003;68408;53.952;27.612;2023-06-04T04:17:18;1.4;0.9;0.8
53698;PMS7003;68408;53.952;27.612;2023-06-04T04:21:32;1.3;1.2;1
53698;PMS7003;68408;53.952;27.612;2023-06-04T04:27:16;1.6;1.1;1
53698;PMS7003;68408;53.952;27.612;2023-06-04T04:31:34;4;3.4;2.7
53698;PMS7003;68408;53.952;27.612;2023-06-04T04:37:18;6.1;5.2;3.6
53698;PMS7003;68408;53.952;27.612;2023-06-04T04:42:02;9.3;7.8;5.7
53698;PMS7003;68408;53.952;27.612;2023-06-04T04:47:18;2.7;1.8;1.4
53698;PMS7003;68408;53.952;27.612;2023-06-04T04:52:18;7.1;5.6;4.1
53698;PMS7003;68408;53.952;27.612;2023-06-04T04:57:18;2.5;1.7;1.4
53698;PMS7003;68408;53.952;27.612;2023-06-04T05:01:44;1.8;1.1;0.9
53698;PMS7003;68408;53.952;27.612;2023-06-04T05:07:18;1.9;1;0.7
53698;PMS7003;68408;53.952;27.612;2023-06-04T05:11:50;1.2;0.8;0.7
53698;PMS7003;68408;53.952;27.612;2023-06-04T05:17:18;2.1;0.9;0.8
53698;PMS7003;68408;53.952;27.612;2023-06-04T05:21:44;1.8;0.8;0.8
53698;PMS7003;68408;53.952;27.612;2023-06-04T05:27:16;1.9;1;0.7
53698;PMS7003;68408;53.952;27.612;2023-06-04T05:32:00;1.5;1.3;0.9
53698;PMS7003;68408;53.952;27.612;2023-06-04T05:37:18;1.7;1.3;1.2
53698;PMS7003;68408;53.952;27.612;2023-06-04T05:41:38;2.8;2.2;1.9
53698;PMS7003;68408;53.952;27.612;2023-06-04T05:47:18;1.2;1;0.8
53698;PMS7003;68408;53.952;27.612;2023-06-04T05:52:02;0.9;0.6;0.5
53698;PMS7003;68408;53.952;27.612;2023-06-04T05:57:18;0.8;0.4;0.3
53698;PMS7003;68408;53.952;27.612;2023-06-04T06:01:44;0.9;0.3;0.2
53698;PMS7003;68408;53.952;27.612;2023-06-04T06:07:18;0.6;0.2;0.1
53698;PMS7003;68408;53.952;27.612;2023-06-04T06:12:00;0.6;0.1;0.1
53698;PMS7003;68408;53.952;27.612;2023-06-04T06:17:18;0.7;0.3;0.3
53698;PMS7003;68408;53.952;27.612;2023-06-04T06:21:32;0.9;0.4;0.3
53698;PMS7003;68408;53.952;27.612;2023-06-04T06:27:18;2.2;1.9;1.6
53698;PMS7003;68408;53.952;27.612;2023-06-04T06:32:00;5.2;4.2;3.2
53698;PMS7003;68408;53.952;27.612;2023-06-04T06:37:18;0.7;0.4;0.3
53698;PMS7003;68408;53.952;27.612;2023-06-04T06:41:44;0.9;0.3;0.1
53698;PMS7003;68408;53.952;27.612;2023-06-04T06:47:16;0.1;0;0
53698;PMS7003;68408;53.952;27.612;2023-06-04T06:52:02;1.6;1.2;1.1
53698;PMS7003;68408;53.952;27.612;2023-06-04T06:57:18;1;0.4;0.4
53698;PMS7003;68408;53.952;27.612;2023-06-04T07:01:56;1;0.5;0.4
53698;PMS7003;68408;53.952;27.612;2023-06-04T07:07:18;0.6;0.2;0.1
53698;PMS7003;68408;53.952;27.612;2023-06-04T07:11:58;0.3;0;0
53698;PMS7003;68408;53.952;27.612;2023-06-04T07:17:18;0.4;0.1;0.1
53698;PMS7003;68408;53.952;27.612;2023-06-04T07:21:32;0.4;0.1;0.1
53698;PMS7003;68408;53.952;27.612;2023-06-04T07:27:18;0.5;0;0
53698;PMS7003;68408;53.952;27.612;2023-06-04T07:32:00;0.5;0;0
53698;PMS7003;68408;53.952;27.612;2023-06-04T07:37:18;0.4;0.4;0.3
53698;PMS7003;68408;53.952;27.612;2023-06-04T07:41:38;0.4;0.2;0.1
53698;PMS7003;68408;53.952;27.612;2023-06-04T07:47:18;0.8;0.6;0.6
53698;PMS7003;68408;53.952;27.612;2023-06-04T07:52:18;1.5;0.8;0.7
53698;PMS7003;68408;53.952;27.612;2023-06-04T07:57:18;0.7;0.4;0.3
53698;PMS7003;68408;53.952;27.612;2023-06-04T08:01:44;1.5;0.5;0.4
53698;PMS7003;68408;53.952;27.612;2023-06-04T08:07:18;0.5;0.2;0.1
53698;PMS7003;68408;53.952;27.612;2023-06-04T08:12:00;0.4;0.2;0.1
53698;PMS7003;68408;53.952;27.612;2023-06-04T08:17:16;0.5;0;0
53698;PMS7003;68408;53.952;27.612;2023-06-04T08:21:42;0.5;0.1;0.1
53698;PMS7003;68408;53.952;27.612;2023-06-04T08:27:18;0.4;0.1;0.1
53698;PMS7003;68408;53.952;27.612;2023-06-04T08:32:00;1.1;0.2;0.1
53698;PMS7003;68408;53.952;27.612;2023-06-04T08:37:18;0.5;0.2;0.1
53698;PMS7003;68408;53.952;27.612;2023-06-04T08:41:45;1;0.4;0.4
53698;PMS7003;68408;53.952;27.612;2023-06-04T08:47:16;1.6;0.6;0.6
53698;PMS7003;68408;53.952;27.612;2023-06-04T08:51:46;1.4;0.4;0.2
53698;PMS7003;68408;53.952;27.612;2023-06-04T08:57:18;0.9;0.3;0.2
53698;PMS7003;68408;53.952;27.612;2023-06-04T09:01:32;0.7;0.2;0.1
53698;PMS7003;68408;53.952;27.612;2023-06-04T09:07:02;1.1;0.6;0.6
53698;PMS7003;68408;53.952;27.612;2023-06-04T09:12:00;1;0.5;0.3
53698;PMS7003;68408;53.952;27.612;2023-06-04T09:17:20;0.3;0.1;0.1
53698;PMS7003;68408;53.952;27.612;2023-06-04T09:21:46;0.3;0.1;0.1
53698;PMS7003;68408;53.952;27.612;2023-06-04T09:27:16;0.8;0.4;0.3
53698;PMS7003;68408;53.952;27.612;2023-06-04T09:32:02;0.3;0.1;0.1
53698;PMS7003;68408;53.952;27.612;2023-06-04T09:37:13;0.6;0.2;0.2
53698;PMS7003;68408;53.952;27.612;2023-06-04T09:41:32;0.7;0.2;0.1
53698;PMS7003;68408;53.952;27.612;2023-06-04T09:47:18;0.5;0.1;0.1
53698;PMS7003;68408;53.952;27.612;2023-06-04T09:52:00;0.2;0.2;0.1
53698;PMS7003;68408;53.952;27.612;2023-06-04T09:56:46;1.9;0.8;0.7
53698;PMS7003;68408;53.952;27.612;2023-06-04T10:01:32;1;0.8;0.7
53698;PMS7003;68408;53.952;27.612;2023-06-04T10:07:18;1.1;1;0.7
53698;PMS7003;68408;53.952;27.612;2023-06-04T10:11:51;0.5;0.4;0.3
53698;PMS7003;68408;53.952;27.612;2023-06-04T10:17:12;0.6;0.2;0.2
53698;PMS7003;68408;53.952;27.612;2023-06-04T10:21:42;0.5;0.1;0.1
53698;PMS7003;68408;53.952;27.612;2023-06-04T10:27:18;0.4;0;0
53698;PMS7003;68408;53.952;27.612;2023-06-04T10:32:02;0.5;0.1;0.1
53698;PMS7003;68408;53.952;27.612;2023-06-04T10:37:18;0.8;0.2;0.2
53698;PMS7003;68408;53.952;27.612;2023-06-04T10:41:32;0.5;0.2;0.2
53698;PMS7003;68408;53.952;27.612;2023-06-04T10:47:20;0.4;0.2;0.1
53698;PMS7003;68408;53.952;27.612;2023-06-04T10:52:09;0.8;0.3;0.1
53698;PMS7003;68408;53.952;27.612;2023-06-04T10:57:12;0.5;0.2;0.2
53698;PMS7003;68408;53.952;27.612;2023-06-04T11:01:32;0.3;0.1;0.1
53698;PMS7003;68408;53.952;27.612;2023-06-04T11:07:20;0.4;0.1;0.1
53698;PMS7003;68408;53.952;27.612;2023-06-04T11:12:20;0.3;0.1;0.1
53698;PMS7003;68408;53.952;27.612;2023-06-04T11:17:10;0.2;0.1;0.1
53698;PMS7003;68408;53.952;27.612;2023-06-04T11:21:56;0.5;0.1;0.1
53698;PMS7003;68408;53.952;27.612;2023-06-04T11:27:20;0.4;0.2;0.1
53698;PMS7003;68408;53.952;27.612;2023-06-04T11:32:04;0.7;0.3;0.2
53698;PMS7003;68408;53.952;27.612;2023-06-04T11:37:12;0.6;0.4;0.4
53698;PMS7003;68408;53.952;27.612;2023-06-04T11:41:32;0.2;0.2;0.2
53698;PMS7003;68408;53.952;27.612;2023-06-04T11:47:20;1;0.3;0.2
53698;PMS7003;68408;53.952;27.612;2023-06-04T11:52:04;0.9;0.3;0.1
53698;PMS7003;68408;53.952;27.612;2023-06-04T11:57:20;0.6;0.2;0.2
53698;PMS7003;68408;53.952;27.612;2023-06-04T12:01:44;0.8;0.1;0.1
53698;PMS7003;68408;53.952;27.612;2023-06-04T12:07:19;0.4;0.4;0.3
53698;PMS7003;68408;53.952;27.612;2023-06-04T12:12:02;0.8;0.1;0.1
53698;PMS7003;68408;53.952;27.612;2023-06-04T12:17:12;0.6;0.4;0.2
53698;PMS7003;68408;53.952;27.612;2023-06-04T12:21:42;0.6;0.4;0.2
53698;PMS7003;68408;53.952;27.612;2023-06-04T12:27:18;0.4;0.1;0.1
53698;PMS7003;68408;53.952;27.612;2023-06-04T12:32:02;0.5;0.3;0.2
53698;PMS7003;68408;53.952;27.612;2023-06-04T12:37:10;0.5;0.3;0.2
53698;PMS7003;68408;53.952;27.612;2023-06-04T12:41:45;0.9;0.3;0.2
53698;PMS7003;68408;53.952;27.612;2023-06-04T12:47:16;0.8;0.6;0.3
53698;PMS7003;68408;53.952;27.612;2023-06-04T12:51:54;0.5;0.4;0.3
53698;PMS7003;68408;53.952;27.612;2023-06-04T12:57:10;0.7;0.4;0.3
53698;PMS7003;68408;53.952;27.612;2023-06-04T13:01:32;0.8;0.3;0.2
53698;PMS7003;68408;53.952;27.612;2023-06-04T13:07:16;0.3;0.1;0.1
53698;PMS7003;68408;53.952;27.612;2023-06-04T13:12:00;0.6;0.5;0.4
53698;PMS7003;68408;53.952;27.612;2023-06-04T13:17:12;0.9;0.7;0.6
53698;PMS7003;68408;53.952;27.612;2023-06-04T13:21:42;2.6;2.1;1.5
53698;PMS7003;68408;53.952;27.612;2023-06-04T13:27:18;0.9;0.7;0.5
53698;PMS7003;68408;53.952;27.612;2023-06-04T13:32:00;0.9;0.6;0.4
53698;PMS7003;68408;53.952;27.612;2023-06-04T13:37:12;1;0.5;0.4
53698;PMS7003;68408;53.952;27.612;2023-06-04T13:41:32;0.7;0.4;0.2
53698;PMS7003;68408;53.952;27.612;2023-06-04T13:47:18;0.5;0.3;0.3
53698;PMS7003;68408;53.952;27.612;2023-06-04T13:52:02;0.7;0.3;0.3
53698;PMS7003;68408;53.952;27.612;2023-06-04T13:57:12;1.3;0.7;0.6
53698;PMS7003;68408;53.952;27.612;2023-06-04T14:01:44;0.5;0.4;0.4
53698;PMS7003;68408;53.952;27.612;2023-06-04T14:07:02;1.6;1;0.7
53698;PMS7003;68408;53.952;27.612;2023-06-04T14:12:10;1.2;0.6;0.5
53698;PMS7003;68408;53.952;27.612;2023-06-04T14:17:18;0.7;0.4;0.3
53698;PMS7003;68408;53.952;27.612;2023-06-04T14:21:32;1.4;0.7;0.7
53698;PMS7003;68408;53.952;27.612;2023-06-04T14:27:04;0.9;0.6;0.5
53698;PMS7003;68408;53.952;27.612;2023-06-04T14:31:34;4.4;3.4;2.6
53698;PMS7003;68408;53.952;27.612;2023-06-04T14:37:18;0.9;0.7;0.6
53698;PMS7003;68408;53.952;27.612;2023-06-04T14:41:56;0.6;0.5;0.4
53698;PMS7003;68408;53.952;27.612;2023-06-04T14:47:02;1.2;0.4;0.3
53698;PMS7003;68408;53.952;27.612;2023-06-04T14:51:46;0.8;0.4;0.3
53698;PMS7003;68408;53.952;27.612;2023-06-04T14:56:54;0.3;0.3;0.3
53698;PMS7003;68408;53.952;27.612;2023-06-04T15:01:44;0.7;0.4;0.2
53698;PMS7003;68408;53.952;27.612;2023-06-04T15:07:02;0.8;0.4;0.4
53698;PMS7003;68408;53.952;27.612;2023-06-04T15:12:12;0.8;0.6;0.5
53698;PMS7003;68408;53.952;27.612;2023-06-04T15:17:18;0.7;0.3;0.1
53698;PMS7003;68408;53.952;27.612;2023-06-04T15:21:32;0.4;0.3;0.3
53698;PMS7003;68408;53.952;27.612;2023-06-04T15:27:00;0.5;0.4;0.3
53698;PMS7003;68408;53.952;27.612;2023-06-04T15:32:12;0.7;0.5;0.3
53698;PMS7003;68408;53.952;27.612;2023-06-04T15:37:20;1.2;0.6;0.5
53698;PMS7003;68408;53.952;27.612;2023-06-04T15:42:12;0.5;0.3;0.2
53698;PMS7003;68408;53.952;27.612;2023-06-04T15:47:04;0.9;0.5;0.4
53698;PMS7003;68408;53.952;27.612;2023-06-04T15:52:10;1.1;0.4;0.2
53698;PMS7003;68408;53.952;27.612;2023-06-04T15:57:20;0.5;0.1;0.1
53698;PMS7003;68408;53.952;27.612;2023-06-04T16:01:44;2.3;1.8;1.3
53698;PMS7003;68408;53.952;27.612;2023-06-04T16:07:04;4.1;3.4;2.6
53698;PMS7003;68408;53.952;27.612;2023-06-04T16:12:12;2.8;1.9;1.5
53698;PMS7003;68408;53.952;27.612;2023-06-04T16:17:18;0.9;0.3;0.1
53698;PMS7003;68408;53.952;27.612;2023-06-04T16:21:44;0.9;0.5;0.5
53698;PMS7003;68408;53.952;27.612;2023-06-04T16:27:04;1.5;0.4;0.3
53698;PMS7003;68408;53.952;27.612;2023-06-04T16:32:10;0.4;0.3;0.3
53698;PMS7003;68408;53.952;27.612;2023-06-04T16:37:18;0.6;0.4;0.3
53698;PMS7003;68408;53.952;27.612;2023-06-04T16:41:32;0.6;0.3;0.2
53698;PMS7003;68408;53.952;27.612;2023-06-04T16:47:00;0.9;0.5;0.4
53698;PMS7003;68408;53.952;27.612;2023-06-04T16:52:12;0.8;0.5;0.4
53698;PMS7003;68408;53.952;27.612;2023-06-04T16:57:18;1.1;0.7;0.5
53698;PMS7003;68408;53.952;27.612;2023-06-04T17:01:42;2.3;1.6;1.2
53698;PMS7003;68408;53.952;27.612;2023-06-04T17:07:02;1.2;0.9;0.7
53698;PMS7003;68408;53.952;27.612;2023-06-04T17:12:10;1.3;0.7;0.6
53698;PMS7003;68408;53.952;27.612;2023-06-04T17:17:18;1.5;0.8;0.7
53698;PMS7003;68408;53.952;27.612;2023-06-04T17:21:32;1.3;0.9;0.8
53698;PMS7003;68408;53.952;27.612;2023-06-04T17:27:00;1.3;0.8;0.7
53698;PMS7003;68408;53.952;27.612;2023-06-04T17:32:12;1.9;1.3;1.1
53698;PMS7003;68408;53.952;27.612;2023-06-04T17:37:16;1.4;1.1;1
53698;PMS7003;68408;53.952;27.612;2023-06-04T17:41:44;3.5;2.7;2.3
53698;PMS7003;68408;53.952;27.612;2023-06-04T17:47:04;2.9;2.1;1.7
53698;PMS7003;68408;53.952;27.612;2023-06-04T17:51:34;2;1.5;1.3
53698;PMS7003;68408;53.952;27.612;2023-06-04T17:57:20;1.7;1.2;0.9
53698;PMS7003;68408;53.952;27.612;2023-06-04T18:02:10;2.1;1.4;1.1
53698;PMS7003;68408;53.952;27.612;2023-06-04T18:07:04;1.8;1.4;1.1
53698;PMS7003;68408;53.952;27.612;2023-06-04T18:12:12;1.5;1;0.9
53698;PMS7003;68408;53.952;27.612;2023-06-04T18:17:20;1.9;1.4;1.1
53698;PMS7003;68408;53.952;27.612;2023-06-04T18:21:32;1.9;1.2;1
53698;PMS7003;68408;53.952;27.612;2023-06-04T18:27:04;1.8;1.4;1.1
53698;PMS7003;68408;53.952;27.612;2023-06-04T18:31:32;2;1.2;1.1
53698;PMS7003;68408;53.952;27.612;2023-06-04T18:36:52;2.1;1.2;1.1
53698;PMS7003;68408;53.952;27.612;2023-06-04T18:42:14;2.6;1.8;1.4
53698;PMS7003;68408;53.952;27.612;2023-06-04T18:47:18;20.1;16.7;11.9
53698;PMS7003;68408;53.952;27.612;2023-06-04T18:51:58;15.2;12.4;9.4
53698;PMS7003;68408;53.952;27.612;2023-06-04T18:56:46;5.8;4.5;3.9
53698;PMS7003;68408;53.952;27.612;2023-06-04T19:02:04;4.4;2.7;2.3
53698;PMS7003;68408;53.952;27.612;2023-06-04T19:06:44;3.5;2.5;2.2
53698;PMS7003;68408;53.952;27.612;2023-06-04T19:11:46;4.1;2.6;2.2
53698;PMS7003;68408;53.952;27.612;2023-06-04T19:16:59;3.7;3.1;2.7
53698;PMS7003;68408;53.952;27.612;2023-06-04T19:22:04;5.9;4.1;3.5
53698;PMS7003;68408;53.952;27.612;2023-06-04T19:26:42;26.5;21.1;15.5
53698;PMS7003;68408;53.952;27.612;2023-06-04T19:31:58;23.1;19.5;14.3
53698;PMS7003;68408;53.952;27.612;2023-06-04T19:36:44;12.5;11;8.7
53698;PMS7003;68408;53.952;27.612;2023-06-04T19:41:52;7.9;6.5;5.4
53698;PMS7003;68408;53.952;27.612;2023-06-04T19:46:54;6.9;6.1;5
53698;PMS7003;68408;53.952;27.612;2023-06-04T19:51:58;5.9;4.9;4.2
53698;PMS7003;68408;53.952;27.612;2023-06-04T19:56:32;7.1;5.9;5
53698;PMS7003;68408;53.952;27.612;2023-06-04T20:02:05;7.8;6.8;5.7
53698;PMS7003;68408;53.952;27.612;2023-06-04T20:06:58;9;7.2;6.1
53698;PMS7003;68408;53.952;27.612;2023-06-04T20:11:58;10;7.6;6.3
53698;PMS7003;68408;53.952;27.612;2023-06-04T20:16:58;8;7;6
53698;PMS7003;68408;53.952;27.612;2023-06-04T20:22:04;7.1;6.2;5.2
53698;PMS7003;68408;53.952;27.612;2023-06-04T20:26:56;7.1;6.1;4.9
53698;PMS7003;68408;53.952;27.612;2023-06-04T20:32:04;7;5.5;4.7
53698;PMS7003;68408;53.952;27.612;2023-06-04T20:36:44;7.6;6.2;5
53698;PMS7003;68408;53.952;27.612;2023-06-04T20:41:34;6.4;5;4.3
53698;PMS7003;68408;53.952;27.612;2023-06-04T20:46:44;5.2;4.6;3.9
53698;PMS7003;68408;53.952;27.612;2023-06-04T20:51:58;6.7;6;4.9
53698;PMS7003;68408;53.952;27.612;2023-06-04T20:56:32;7.2;6.2;5.2
53698;PMS7003;68408;53.952;27.612;2023-06-04T21:02:00;6.3;5.4;4.4
53698;PMS7003;68408;53.952;27.612;2023-06-04T21:06:44;6.7;5.9;5
53698;PMS7003;68408;53.952;27.612;2023-06-04T21:12:04;7.2;5.9;4.8
53698;PMS7003;68408;53.952;27.612;2023-06-04T21:16:46;5.3;4.6;4.1
53698;PMS7003;68408;53.952;27.612;2023-06-04T21:21:48;5.9;4.9;4.4
53698;PMS7003;68408;53.952;27.612;2023-06-04T21:26:32;5.5;4.5;4
53698;PMS7003;68408;53.952;27.612;2023-06-04T21:31:58;5.5;4.8;4
53698;PMS7003;68408;53.952;27.612;2023-06-04T21:36:32;5.3;4.5;3.9
53698;PMS7003;68408;53.952;27.612;2023-06-04T21:42:06;5.5;4.2;3.7
53698;PMS7003;68408;53.952;27.612;2023-06-04T21:46:32;6.5;5.9;4.8
53698;PMS7003;68408;53.952;27.612;2023-06-04T21:51:32;5.5;4.4;3.8
53698;PMS7003;68408;53.952;27.612;2023-06-04T21:56:45;6.8;5.8;4.9
53698;PMS7003;68408;53.952;27.612;2023-06-04T22:02:04;5.8;4.5;3.8
53698;PMS7003;68408;53.952;27.612;2023-06-04T22:06:54;5.3;4.9;3.9
53698;PMS7003;68408;53.952;27.612;2023-06-04T22:11:56;5;3.8;3.3
53698;PMS7003;68408;53.952;27.612;2023-06-04T22:16:32;5;3.7;3
53698;PMS7003;68408;53.952;27.612;2023-06-04T22:22:04;4.5;4;3.5
53698;PMS7003;68408;53.952;27.612;2023-06-04T22:26:32;5.3;4;3.4
53698;PMS7003;68408;53.952;27.612;2023-06-04T22:31:56;4.4;3.6;3.1
53698;PMS7003;68408;53.952;27.612;2023-06-04T22:36:32;4.5;3.7;3.3
53698;PMS7003;68408;53.952;27.612;2023-06-04T22:42:02;5.1;4.2;3.3
53698;PMS7003;68408;53.952;27.612;2023-06-04T22:46:42;4.9;4.1;3.3
53698;PMS7003;68408;53.952;27.612;2023-06-04T22:51:56;5.3;4.3;3.8
53698;PMS7003;68408;53.952;27.612;2023-06-04T22:56:32;4.9;3.7;3.2
53698;PMS7003;68408;53.952;27.612;2023-06-04T23:01:32;4.5;3.2;2.7
53698;PMS7003;68408;53.952;27.612;2023-06-04T23:06:54;4.5;3.6;3.2
53698;PMS7003;68408;53.952;27.612;2023-06-04T23:11:42;4.2;3.2;3
53698;PMS7003;68408;53.952;27.612;2023-06-04T23:16:56;5.5;4.4;3.7
53698;PMS7003;68408;53.952;27.612;2023-06-04T23:21:40;4.7;3.6;3.1
53698;PMS7003;68408;53.952;27.612;2023-06-04T23:26:40;6.2;5.3;4.4
53698;PMS7003;68408;53.952;27.612;2023-06-04T23:31:32;6.8;5.4;4.5
53698;PMS7003;68408;53.952;27.612;2023-06-04T23:37:08;6.5;4.7;3.9
53698;PMS7003;68408;53.952;27.612;2023-06-04T23:41:44;7.5;6.1;5
53698;PMS7003;68408;53.952;27.612;2023-06-04T23:46:40;7.8;6.4;5.3
53698;PMS7003;68408;53.952;27.612;2023-06-04T23:51:32;6.4;4.5;3.6
53698;PMS7003;68408;53.952;27.612;2023-06-04T23:56:44;7;5.6;4.8
